This is the latest recevied weather packets stored in our database for station/object K7DC. If no packets are shown the sender has not sent any weather packets the latest 10 day(s).
| Time | Temp. | Humidity | Pressure | Rain* | Wind** | Luminosity | Snow |
|---|---|---|---|---|---|---|---|
| 1788213464 | 23.33° C | 82% | 1016.7 hPa | 0 mm | - | 276 W/m² | - |
| 1788213161 | 23.33° C | 82% | 1016.8 hPa | 0 mm | - | 271 W/m² | - |
| 1788212857 | 22.78° C | 83% | 1017.1 hPa | 0 mm | - | 277 W/m² | - |
| 1788212554 | 23.33° C | 82% | 1017.4 hPa | 0 mm | - | 288 W/m² | - |
| 1788212256 | 23.33° C | 87% | 1017.6 hPa | 0 mm | - | 477 W/m² | - |
| 1788211946 | 23.33° C | 84% | 1017.8 hPa | 0 mm | - | 732 W/m² | - |
| 1788211646 | 22.78° C | 95% | 1018 hPa | 0 mm | - | 1547 W/m² | - |
| 1788211343 | 21.11° C | 93% | 1017.9 hPa | 0 mm | - | 1420 W/m² | - |
| 1788211041 | 21.11° C | 93% | 1018.1 hPa | 0 mm | - | 351 W/m² | - |
| 1788210737 | 21.11° C | 94% | 1018.3 hPa | 0 mm | - | 233 W/m² | - |
| 1788210437 | 20.56° C | 94% | 1018.3 hPa | 0 mm | - | 198 W/m² | - |
| 1788210133 | 20° C | 94% | 1018.3 hPa | 0 mm | - | 184 W/m² | - |
| 1788209833 | 20° C | 94% | 1018.7 hPa | 1.78 mm | - | 192 W/m² | - |
| 1788209529 | 20° C | 94% | 1019 hPa | 1.78 mm | - | 185 W/m² | - |
| 1788209229 | 20° C | 95% | 1019.3 hPa | 1.27 mm | - | 145 W/m² | - |
| 1788208928 | 20° C | 95% | 1019.7 hPa | 1.27 mm | - | 126 W/m² | - |
| 1788208622 | 20° C | 95% | 1019.7 hPa | 1.78 mm | - | 84 W/m² | - |
| 1788208321 | 20° C | 95% | 1019.5 hPa | 3.05 mm | - | 67 W/m² | - |
| 1788208020 | 20° C | 95% | 1019.4 hPa | 4.32 mm | - | 68 W/m² | - |
| 1788207716 | 20° C | 95% | 1019.8 hPa | 3.05 mm | - | 64 W/m² | - |
| 1788207415 | 19.44° C | 95% | 1019.9 hPa | 3.05 mm | - | 54 W/m² | - |
| 1788207115 | 19.44° C | 95% | 1020 hPa | 3.05 mm | - | 52 W/m² | - |
| 1788206811 | 19.44° C | 94% | 1020.2 hPa | 3.56 mm | - | 46 W/m² | - |
| 1788206511 | 19.44° C | 94% | 1020 hPa | 3.05 mm | - | 44 W/m² | - |
| 1788206206 | 19.44° C | 94% | 1020.7 hPa | 4.32 mm | - | 48 W/m² | - |
* Rain latest hour (hover to see other rain measurements)
** Current wind speed in m/s (hover to see current wind gust speed)